sensor_id;sensor_type;location;lat;lon;timestamp;P1;durP1;ratioP1;P2;durP2;ratioP2
11711;SDS011;5912;51.034;6.984;2024-01-30T00:00:16;9.73;;;6.22;;
11711;SDS011;5912;51.034;6.984;2024-01-30T00:02:42;8.60;;;6.15;;
11711;SDS011;5912;51.034;6.984;2024-01-30T00:05:08;9.13;;;6.15;;
11711;SDS011;5912;51.034;6.984;2024-01-30T00:07:33;7.72;;;6.03;;
11711;SDS011;5912;51.034;6.984;2024-01-30T00:09:59;8.05;;;6.18;;
11711;SDS011;5912;51.034;6.984;2024-01-30T00:12:24;7.47;;;5.95;;
11711;SDS011;5912;51.034;6.984;2024-01-30T00:14:50;7.57;;;5.97;;
11711;SDS011;5912;51.034;6.984;2024-01-30T00:17:16;9.57;;;6.82;;
11711;SDS011;5912;51.034;6.984;2024-01-30T00:19:41;7.75;;;5.60;;
11711;SDS011;5912;51.034;6.984;2024-01-30T00:22:06;8.10;;;6.18;;
11711;SDS011;5912;51.034;6.984;2024-01-30T00:24:32;10.30;;;6.72;;
11711;SDS011;5912;51.034;6.984;2024-01-30T00:26:58;7.82;;;5.78;;
11711;SDS011;5912;51.034;6.984;2024-01-30T00:29:23;8.80;;;6.15;;
11711;SDS011;5912;51.034;6.984;2024-01-30T00:31:50;9.50;;;5.97;;
11711;SDS011;5912;51.034;6.984;2024-01-30T00:34:15;7.18;;;5.78;;
11711;SDS011;5912;51.034;6.984;2024-01-30T00:36:41;8.73;;;6.10;;
11711;SDS011;5912;51.034;6.984;2024-01-30T00:39:06;9.20;;;6.10;;
11711;SDS011;5912;51.034;6.984;2024-01-30T00:41:34;8.73;;;6.25;;
11711;SDS011;5912;51.034;6.984;2024-01-30T00:43:59;8.85;;;6.30;;
11711;SDS011;5912;51.034;6.984;2024-01-30T00:46:24;7.60;;;5.78;;
11711;SDS011;5912;51.034;6.984;2024-01-30T00:48:50;11.00;;;5.85;;
11711;SDS011;5912;51.034;6.984;2024-01-30T00:51:15;9.85;;;5.97;;
11711;SDS011;5912;51.034;6.984;2024-01-30T00:53:40;8.25;;;5.68;;
11711;SDS011;5912;51.034;6.984;2024-01-30T00:56:06;7.20;;;6.40;;
11711;SDS011;5912;51.034;6.984;2024-01-30T00:58:32;7.93;;;5.70;;
11711;SDS011;5912;51.034;6.984;2024-01-30T01:00:57;8.13;;;6.30;;
11711;SDS011;5912;51.034;6.984;2024-01-30T01:03:22;11.48;;;6.07;;
11711;SDS011;5912;51.034;6.984;2024-01-30T01:05:48;9.85;;;6.18;;
11711;SDS011;5912;51.034;6.984;2024-01-30T01:08:13;8.50;;;6.32;;
11711;SDS011;5912;51.034;6.984;2024-01-30T01:10:40;8.40;;;5.80;;
11711;SDS011;5912;51.034;6.984;2024-01-30T01:13:05;7.65;;;5.95;;
11711;SDS011;5912;51.034;6.984;2024-01-30T01:15:30;10.43;;;6.30;;
11711;SDS011;5912;51.034;6.984;2024-01-30T01:17:57;7.03;;;5.90;;
11711;SDS011;5912;51.034;6.984;2024-01-30T01:20:22;7.65;;;6.25;;
11711;SDS011;5912;51.034;6.984;2024-01-30T01:22:47;8.85;;;6.80;;
11711;SDS011;5912;51.034;6.984;2024-01-30T01:25:13;10.55;;;6.25;;
11711;SDS011;5912;51.034;6.984;2024-01-30T01:27:38;8.13;;;5.88;;
11711;SDS011;5912;51.034;6.984;2024-01-30T01:30:06;8.45;;;5.72;;
11711;SDS011;5912;51.034;6.984;2024-01-30T01:32:34;8.52;;;5.70;;
11711;SDS011;5912;51.034;6.984;2024-01-30T01:34:59;8.00;;;5.72;;
11711;SDS011;5912;51.034;6.984;2024-01-30T01:37:25;8.77;;;5.88;;
11711;SDS011;5912;51.034;6.984;2024-01-30T01:39:51;7.70;;;5.88;;
11711;SDS011;5912;51.034;6.984;2024-01-30T01:42:17;7.32;;;5.68;;
11711;SDS011;5912;51.034;6.984;2024-01-30T01:44:42;8.55;;;6.05;;
11711;SDS011;5912;51.034;6.984;2024-01-30T01:47:08;7.82;;;6.05;;
11711;SDS011;5912;51.034;6.984;2024-01-30T01:49:33;8.85;;;5.95;;
11711;SDS011;5912;51.034;6.984;2024-01-30T01:51:59;9.48;;;6.03;;
11711;SDS011;5912;51.034;6.984;2024-01-30T01:54:25;8.20;;;5.85;;
11711;SDS011;5912;51.034;6.984;2024-01-30T01:56:51;10.30;;;5.50;;
11711;SDS011;5912;51.034;6.984;2024-01-30T01:59:18;7.70;;;5.97;;
11711;SDS011;5912;51.034;6.984;2024-01-30T02:01:44;7.70;;;5.40;;
11711;SDS011;5912;51.034;6.984;2024-01-30T02:04:14;7.45;;;5.53;;
11711;SDS011;5912;51.034;6.984;2024-01-30T02:06:39;8.18;;;5.53;;
11711;SDS011;5912;51.034;6.984;2024-01-30T02:09:04;7.28;;;5.47;;
11711;SDS011;5912;51.034;6.984;2024-01-30T02:11:30;7.60;;;5.32;;
11711;SDS011;5912;51.034;6.984;2024-01-30T02:13:55;7.25;;;5.63;;
11711;SDS011;5912;51.034;6.984;2024-01-30T02:16:21;10.38;;;5.57;;
11711;SDS011;5912;51.034;6.984;2024-01-30T02:18:46;8.00;;;5.63;;
11711;SDS011;5912;51.034;6.984;2024-01-30T02:21:12;8.65;;;5.57;;
11711;SDS011;5912;51.034;6.984;2024-01-30T02:23:38;7.38;;;5.65;;
11711;SDS011;5912;51.034;6.984;2024-01-30T02:26:04;7.45;;;5.25;;
11711;SDS011;5912;51.034;6.984;2024-01-30T02:28:30;6.53;;;5.30;;
11711;SDS011;5912;51.034;6.984;2024-01-30T02:30:55;8.40;;;5.88;;
11711;SDS011;5912;51.034;6.984;2024-01-30T02:33:20;6.25;;;5.13;;
11711;SDS011;5912;51.034;6.984;2024-01-30T02:35:49;7.60;;;5.38;;
11711;SDS011;5912;51.034;6.984;2024-01-30T02:38:15;8.57;;;5.53;;
11711;SDS011;5912;51.034;6.984;2024-01-30T02:40:40;7.50;;;5.13;;
11711;SDS011;5912;51.034;6.984;2024-01-30T02:43:06;8.07;;;5.93;;
11711;SDS011;5912;51.034;6.984;2024-01-30T02:45:31;8.05;;;5.50;;
11711;SDS011;5912;51.034;6.984;2024-01-30T02:47:56;7.90;;;5.57;;
11711;SDS011;5912;51.034;6.984;2024-01-30T02:50:22;7.50;;;5.32;;
11711;SDS011;5912;51.034;6.984;2024-01-30T02:52:47;7.03;;;4.90;;
11711;SDS011;5912;51.034;6.984;2024-01-30T02:55:12;6.07;;;4.70;;
11711;SDS011;5912;51.034;6.984;2024-01-30T02:57:38;8.88;;;5.25;;
11711;SDS011;5912;51.034;6.984;2024-01-30T03:00:04;7.13;;;5.10;;
11711;SDS011;5912;51.034;6.984;2024-01-30T03:02:31;9.55;;;5.25;;
11711;SDS011;5912;51.034;6.984;2024-01-30T03:04:57;7.88;;;4.90;;
11711;SDS011;5912;51.034;6.984;2024-01-30T03:07:22;8.50;;;5.05;;
11711;SDS011;5912;51.034;6.984;2024-01-30T03:09:48;6.38;;;5.15;;
11711;SDS011;5912;51.034;6.984;2024-01-30T03:12:13;8.30;;;5.25;;
11711;SDS011;5912;51.034;6.984;2024-01-30T03:14:38;6.03;;;4.97;;
11711;SDS011;5912;51.034;6.984;2024-01-30T03:17:04;7.05;;;4.90;;
11711;SDS011;5912;51.034;6.984;2024-01-30T03:19:29;9.10;;;4.80;;
11711;SDS011;5912;51.034;6.984;2024-01-30T03:21:54;7.25;;;4.85;;
11711;SDS011;5912;51.034;6.984;2024-01-30T03:24:20;7.03;;;5.38;;
11711;SDS011;5912;51.034;6.984;2024-01-30T03:26:45;7.40;;;4.85;;
11711;SDS011;5912;51.034;6.984;2024-01-30T03:29:11;7.05;;;5.18;;
11711;SDS011;5912;51.034;6.984;2024-01-30T03:31:36;7.50;;;4.95;;
11711;SDS011;5912;51.034;6.984;2024-01-30T03:34:01;6.93;;;5.18;;
11711;SDS011;5912;51.034;6.984;2024-01-30T03:36:27;7.03;;;5.55;;
11711;SDS011;5912;51.034;6.984;2024-01-30T03:38:53;7.47;;;5.07;;
11711;SDS011;5912;51.034;6.984;2024-01-30T03:41:18;8.65;;;5.78;;
11711;SDS011;5912;51.034;6.984;2024-01-30T03:43:44;6.70;;;5.40;;
11711;SDS011;5912;51.034;6.984;2024-01-30T03:46:11;6.35;;;4.93;;
11711;SDS011;5912;51.034;6.984;2024-01-30T03:48:37;7.03;;;4.95;;
11711;SDS011;5912;51.034;6.984;2024-01-30T03:51:03;7.65;;;5.03;;
11711;SDS011;5912;51.034;6.984;2024-01-30T03:53:28;6.28;;;5.00;;
11711;SDS011;5912;51.034;6.984;2024-01-30T03:55:54;7.32;;;5.07;;
11711;SDS011;5912;51.034;6.984;2024-01-30T03:58:19;6.15;;;4.80;;
11711;SDS011;5912;51.034;6.984;2024-01-30T04:00:44;7.47;;;5.15;;
11711;SDS011;5912;51.034;6.984;2024-01-30T04:03:10;7.50;;;5.35;;
11711;SDS011;5912;51.034;6.984;2024-01-30T04:05:35;7.53;;;5.40;;
11711;SDS011;5912;51.034;6.984;2024-01-30T04:08:00;6.55;;;4.78;;
11711;SDS011;5912;51.034;6.984;2024-01-30T04:10:26;6.93;;;5.25;;
11711;SDS011;5912;51.034;6.984;2024-01-30T04:12:51;6.70;;;5.18;;
11711;SDS011;5912;51.034;6.984;2024-01-30T04:15:16;8.25;;;5.28;;
11711;SDS011;5912;51.034;6.984;2024-01-30T04:17:42;7.40;;;5.47;;
11711;SDS011;5912;51.034;6.984;2024-01-30T04:20:08;5.72;;;5.00;;
11711;SDS011;5912;51.034;6.984;2024-01-30T04:22:37;7.05;;;5.32;;
11711;SDS011;5912;51.034;6.984;2024-01-30T04:25:02;6.20;;;4.63;;
11711;SDS011;5912;51.034;6.984;2024-01-30T04:27:28;8.27;;;5.05;;
11711;SDS011;5912;51.034;6.984;2024-01-30T04:29:53;8.70;;;5.50;;
11711;SDS011;5912;51.034;6.984;2024-01-30T04:32:18;7.10;;;5.40;;
11711;SDS011;5912;51.034;6.984;2024-01-30T04:34:43;7.40;;;5.43;;
11711;SDS011;5912;51.034;6.984;2024-01-30T04:37:09;7.75;;;5.53;;
11711;SDS011;5912;51.034;6.984;2024-01-30T04:39:35;6.82;;;5.30;;
11711;SDS011;5912;51.034;6.984;2024-01-30T04:42:02;8.00;;;5.50;;
11711;SDS011;5912;51.034;6.984;2024-01-30T04:44:27;7.40;;;5.60;;
11711;SDS011;5912;51.034;6.984;2024-01-30T04:46:52;9.13;;;5.35;;
11711;SDS011;5912;51.034;6.984;2024-01-30T04:49:17;7.30;;;5.35;;
11711;SDS011;5912;51.034;6.984;2024-01-30T04:51:43;7.40;;;5.80;;
11711;SDS011;5912;51.034;6.984;2024-01-30T04:54:08;9.65;;;6.05;;
11711;SDS011;5912;51.034;6.984;2024-01-30T04:56:34;7.68;;;5.30;;
11711;SDS011;5912;51.034;6.984;2024-01-30T04:59:01;7.57;;;5.50;;
11711;SDS011;5912;51.034;6.984;2024-01-30T05:01:27;7.72;;;5.50;;
11711;SDS011;5912;51.034;6.984;2024-01-30T05:03:53;7.40;;;5.50;;
11711;SDS011;5912;51.034;6.984;2024-01-30T05:06:27;7.15;;;5.65;;
11711;SDS011;5912;51.034;6.984;2024-01-30T05:08:53;7.47;;;5.75;;
11711;SDS011;5912;51.034;6.984;2024-01-30T05:11:18;6.60;;;5.75;;
11711;SDS011;5912;51.034;6.984;2024-01-30T05:13:44;8.27;;;6.25;;
11711;SDS011;5912;51.034;6.984;2024-01-30T05:16:09;7.38;;;5.60;;
11711;SDS011;5912;51.034;6.984;2024-01-30T05:18:34;7.40;;;5.88;;
11711;SDS011;5912;51.034;6.984;2024-01-30T05:21:00;7.40;;;5.82;;
11711;SDS011;5912;51.034;6.984;2024-01-30T05:23:25;8.10;;;5.85;;
11711;SDS011;5912;51.034;6.984;2024-01-30T05:25:50;7.47;;;5.40;;
11711;SDS011;5912;51.034;6.984;2024-01-30T05:28:16;7.20;;;5.85;;
11711;SDS011;5912;51.034;6.984;2024-01-30T05:30:41;7.45;;;5.47;;
11711;SDS011;5912;51.034;6.984;2024-01-30T05:33:07;7.53;;;5.80;;
11711;SDS011;5912;51.034;6.984;2024-01-30T05:35:32;7.30;;;5.38;;
11711;SDS011;5912;51.034;6.984;2024-01-30T05:37:57;7.07;;;5.10;;
11711;SDS011;5912;51.034;6.984;2024-01-30T05:40:22;10.80;;;6.03;;
11711;SDS011;5912;51.034;6.984;2024-01-30T05:42:48;6.88;;;5.25;;
11711;SDS011;5912;51.034;6.984;2024-01-30T05:45:13;9.07;;;6.20;;
11711;SDS011;5912;51.034;6.984;2024-01-30T05:47:38;6.80;;;5.70;;
11711;SDS011;5912;51.034;6.984;2024-01-30T05:50:04;8.32;;;6.05;;
11711;SDS011;5912;51.034;6.984;2024-01-30T05:52:30;8.43;;;5.97;;
11711;SDS011;5912;51.034;6.984;2024-01-30T05:54:55;9.48;;;6.20;;
11711;SDS011;5912;51.034;6.984;2024-01-30T05:57:21;8.10;;;5.75;;
11711;SDS011;5912;51.034;6.984;2024-01-30T05:59:46;9.25;;;6.22;;
11711;SDS011;5912;51.034;6.984;2024-01-30T06:02:13;7.22;;;5.78;;
11711;SDS011;5912;51.034;6.984;2024-01-30T06:04:38;8.32;;;5.68;;
11711;SDS011;5912;51.034;6.984;2024-01-30T06:07:04;9.60;;;6.43;;
11711;SDS011;5912;51.034;6.984;2024-01-30T06:09:31;6.03;;;5.22;;
11711;SDS011;5912;51.034;6.984;2024-01-30T06:11:57;5.97;;;5.38;;
11711;SDS011;5912;51.034;6.984;2024-01-30T06:14:22;8.52;;;5.80;;
11711;SDS011;5912;51.034;6.984;2024-01-30T06:16:48;7.82;;;5.90;;
11711;SDS011;5912;51.034;6.984;2024-01-30T06:19:13;7.57;;;5.35;;
11711;SDS011;5912;51.034;6.984;2024-01-30T06:21:38;8.23;;;5.22;;
11711;SDS011;5912;51.034;6.984;2024-01-30T06:24:04;9.00;;;5.75;;
11711;SDS011;5912;51.034;6.984;2024-01-30T06:26:30;7.00;;;5.43;;
11711;SDS011;5912;51.034;6.984;2024-01-30T06:28:55;7.18;;;5.55;;
11711;SDS011;5912;51.034;6.984;2024-01-30T06:31:20;6.47;;;5.57;;
11711;SDS011;5912;51.034;6.984;2024-01-30T06:33:49;6.95;;;5.40;;
11711;SDS011;5912;51.034;6.984;2024-01-30T06:36:14;8.38;;;5.72;;
11711;SDS011;5912;51.034;6.984;2024-01-30T06:38:40;7.35;;;5.72;;
11711;SDS011;5912;51.034;6.984;2024-01-30T06:41:06;6.65;;;5.05;;
11711;SDS011;5912;51.034;6.984;2024-01-30T06:43:31;7.13;;;5.45;;
11711;SDS011;5912;51.034;6.984;2024-01-30T06:45:57;10.15;;;6.00;;
11711;SDS011;5912;51.034;6.984;2024-01-30T06:48:22;8.13;;;5.23;;
11711;SDS011;5912;51.034;6.984;2024-01-30T06:50:48;8.90;;;5.63;;
11711;SDS011;5912;51.034;6.984;2024-01-30T06:53:14;9.05;;;5.43;;
11711;SDS011;5912;51.034;6.984;2024-01-30T06:55:39;5.97;;;5.20;;
11711;SDS011;5912;51.034;6.984;2024-01-30T06:58:05;8.35;;;5.20;;
11711;SDS011;5912;51.034;6.984;2024-01-30T07:00:30;8.82;;;5.75;;
11711;SDS011;5912;51.034;6.984;2024-01-30T07:02:56;6.75;;;5.15;;
11711;SDS011;5912;51.034;6.984;2024-01-30T07:05:21;6.55;;;5.22;;
11711;SDS011;5912;51.034;6.984;2024-01-30T07:07:47;7.97;;;6.00;;
11711;SDS011;5912;51.034;6.984;2024-01-30T07:10:12;8.60;;;5.47;;
11711;SDS011;5912;51.034;6.984;2024-01-30T07:12:38;7.55;;;5.45;;
11711;SDS011;5912;51.034;6.984;2024-01-30T07:15:03;6.93;;;5.10;;
11711;SDS011;5912;51.034;6.984;2024-01-30T07:17:29;8.93;;;5.75;;
11711;SDS011;5912;51.034;6.984;2024-01-30T07:19:54;8.18;;;5.45;;
11711;SDS011;5912;51.034;6.984;2024-01-30T07:22:20;8.00;;;5.80;;
11711;SDS011;5912;51.034;6.984;2024-01-30T07:24:45;9.73;;;5.50;;
11711;SDS011;5912;51.034;6.984;2024-01-30T07:27:13;8.13;;;5.38;;
11711;SDS011;5912;51.034;6.984;2024-01-30T07:29:38;7.22;;;5.30;;
11711;SDS011;5912;51.034;6.984;2024-01-30T07:32:04;6.63;;;5.05;;
11711;SDS011;5912;51.034;6.984;2024-01-30T07:34:29;5.75;;;5.15;;
11711;SDS011;5912;51.034;6.984;2024-01-30T07:36:54;6.82;;;5.70;;
11711;SDS011;5912;51.034;6.984;2024-01-30T07:39:20;9.60;;;6.15;;
11711;SDS011;5912;51.034;6.984;2024-01-30T07:41:45;7.00;;;5.45;;
11711;SDS011;5912;51.034;6.984;2024-01-30T07:44:11;9.25;;;5.35;;
11711;SDS011;5912;51.034;6.984;2024-01-30T07:46:36;6.85;;;5.07;;
11711;SDS011;5912;51.034;6.984;2024-01-30T07:49:01;9.18;;;5.38;;
11711;SDS011;5912;51.034;6.984;2024-01-30T07:51:27;9.07;;;5.10;;
11711;SDS011;5912;51.034;6.984;2024-01-30T07:53:54;6.68;;;5.30;;
11711;SDS011;5912;51.034;6.984;2024-01-30T07:56:19;6.03;;;4.97;;
11711;SDS011;5912;51.034;6.984;2024-01-30T07:58:44;8.18;;;5.53;;
11711;SDS011;5912;51.034;6.984;2024-01-30T08:01:10;7.50;;;5.15;;
11711;SDS011;5912;51.034;6.984;2024-01-30T08:03:35;8.15;;;5.05;;
11711;SDS011;5912;51.034;6.984;2024-01-30T08:06:01;9.07;;;4.97;;
11711;SDS011;5912;51.034;6.984;2024-01-30T08:08:27;8.25;;;5.30;;
11711;SDS011;5912;51.034;6.984;2024-01-30T08:10:53;7.30;;;5.13;;
11711;SDS011;5912;51.034;6.984;2024-01-30T08:13:18;6.78;;;5.30;;
11711;SDS011;5912;51.034;6.984;2024-01-30T08:15:43;7.93;;;5.43;;
11711;SDS011;5912;51.034;6.984;2024-01-30T08:18:09;8.70;;;5.53;;
11711;SDS011;5912;51.034;6.984;2024-01-30T08:20:34;6.47;;;4.72;;
11711;SDS011;5912;51.034;6.984;2024-01-30T08:22:59;8.35;;;5.30;;
11711;SDS011;5912;51.034;6.984;2024-01-30T08:25:25;7.53;;;4.60;;
11711;SDS011;5912;51.034;6.984;2024-01-30T08:27:51;8.88;;;5.28;;
11711;SDS011;5912;51.034;6.984;2024-01-30T08:30:16;8.63;;;5.68;;
11711;SDS011;5912;51.034;6.984;2024-01-30T08:32:41;6.75;;;4.85;;
11711;SDS011;5912;51.034;6.984;2024-01-30T08:35:07;6.60;;;4.75;;
11711;SDS011;5912;51.034;6.984;2024-01-30T08:37:33;8.68;;;5.30;;
11711;SDS011;5912;51.034;6.984;2024-01-30T08:40:02;6.40;;;4.88;;
11711;SDS011;5912;51.034;6.984;2024-01-30T08:42:29;6.85;;;5.13;;
11711;SDS011;5912;51.034;6.984;2024-01-30T08:44:54;6.00;;;5.10;;
11711;SDS011;5912;51.034;6.984;2024-01-30T08:47:21;7.95;;;5.80;;
11711;SDS011;5912;51.034;6.984;2024-01-30T08:49:46;7.13;;;5.20;;
11711;SDS011;5912;51.034;6.984;2024-01-30T08:52:11;6.38;;;5.00;;
11711;SDS011;5912;51.034;6.984;2024-01-30T08:54:37;9.55;;;5.13;;
11711;SDS011;5912;51.034;6.984;2024-01-30T08:57:02;7.07;;;5.15;;
11711;SDS011;5912;51.034;6.984;2024-01-30T08:59:29;5.85;;;4.53;;
11711;SDS011;5912;51.034;6.984;2024-01-30T09:01:54;8.10;;;5.25;;
11711;SDS011;5912;51.034;6.984;2024-01-30T09:04:20;6.95;;;5.05;;
11711;SDS011;5912;51.034;6.984;2024-01-30T09:06:46;7.35;;;5.35;;
11711;SDS011;5912;51.034;6.984;2024-01-30T09:09:11;6.80;;;5.22;;
11711;SDS011;5912;51.034;6.984;2024-01-30T09:11:36;6.88;;;5.15;;
11711;SDS011;5912;51.034;6.984;2024-01-30T09:14:02;5.45;;;4.75;;
11711;SDS011;5912;51.034;6.984;2024-01-30T09:16:27;6.88;;;4.90;;
11711;SDS011;5912;51.034;6.984;2024-01-30T09:18:53;8.75;;;5.40;;
11711;SDS011;5912;51.034;6.984;2024-01-30T09:21:18;7.10;;;5.30;;
11711;SDS011;5912;51.034;6.984;2024-01-30T09:23:44;7.65;;;4.93;;
11711;SDS011;5912;51.034;6.984;2024-01-30T09:26:09;6.47;;;5.18;;
11711;SDS011;5912;51.034;6.984;2024-01-30T09:28:34;5.70;;;5.10;;
11711;SDS011;5912;51.034;6.984;2024-01-30T09:30:59;7.93;;;5.05;;
11711;SDS011;5912;51.034;6.984;2024-01-30T09:33:25;6.07;;;4.68;;
11711;SDS011;5912;51.034;6.984;2024-01-30T09:35:50;6.75;;;5.05;;
11711;SDS011;5912;51.034;6.984;2024-01-30T09:38:16;6.72;;;5.35;;
11711;SDS011;5912;51.034;6.984;2024-01-30T09:40:41;6.10;;;5.00;;
11711;SDS011;5912;51.034;6.984;2024-01-30T09:43:07;9.13;;;5.18;;
11711;SDS011;5912;51.034;6.984;2024-01-30T09:45:32;5.80;;;4.53;;
11711;SDS011;5912;51.034;6.984;2024-01-30T09:47:59;6.30;;;5.22;;
11711;SDS011;5912;51.034;6.984;2024-01-30T09:50:25;7.28;;;5.03;;
11711;SDS011;5912;51.034;6.984;2024-01-30T09:52:52;7.10;;;5.38;;
11711;SDS011;5912;51.034;6.984;2024-01-30T09:55:20;9.07;;;5.00;;
11711;SDS011;5912;51.034;6.984;2024-01-30T09:57:45;6.28;;;5.22;;
11711;SDS011;5912;51.034;6.984;2024-01-30T10:00:11;6.85;;;4.88;;
11711;SDS011;5912;51.034;6.984;2024-01-30T10:02:38;6.38;;;4.78;;
11711;SDS011;5912;51.034;6.984;2024-01-30T10:05:03;6.55;;;4.68;;
11711;SDS011;5912;51.034;6.984;2024-01-30T10:07:30;8.82;;;4.72;;
11711;SDS011;5912;51.034;6.984;2024-01-30T10:09:55;6.30;;;5.00;;
11711;SDS011;5912;51.034;6.984;2024-01-30T10:12:21;5.60;;;4.47;;
11711;SDS011;5912;51.034;6.984;2024-01-30T10:14:47;8.70;;;4.93;;
11711;SDS011;5912;51.034;6.984;2024-01-30T10:17:12;8.00;;;5.30;;
11711;SDS011;5912;51.034;6.984;2024-01-30T10:19:38;8.38;;;5.15;;
11711;SDS011;5912;51.034;6.984;2024-01-30T10:22:07;5.50;;;4.70;;
11711;SDS011;5912;51.034;6.984;2024-01-30T10:24:34;10.95;;;5.03;;
11711;SDS011;5912;51.034;6.984;2024-01-30T10:27:00;8.48;;;5.43;;
11711;SDS011;5912;51.034;6.984;2024-01-30T10:29:26;8.80;;;4.80;;
11711;SDS011;5912;51.034;6.984;2024-01-30T10:32:25;7.53;;;4.95;;
11711;SDS011;5912;51.034;6.984;2024-01-30T10:34:44;6.80;;;4.80;;
11711;SDS011;5912;51.034;6.984;2024-01-30T10:37:10;6.20;;;4.75;;
11711;SDS011;5912;51.034;6.984;2024-01-30T10:39:42;8.35;;;5.03;;
11711;SDS011;5912;51.034;6.984;2024-01-30T10:42:13;7.72;;;5.22;;
11711;SDS011;5912;51.034;6.984;2024-01-30T10:44:56;7.47;;;4.80;;
11711;SDS011;5912;51.034;6.984;2024-01-30T10:47:28;7.00;;;4.93;;
11711;SDS011;5912;51.034;6.984;2024-01-30T10:49:54;8.50;;;5.03;;
11711;SDS011;5912;51.034;6.984;2024-01-30T10:52:21;7.35;;;4.90;;
11711;SDS011;5912;51.034;6.984;2024-01-30T10:54:49;7.18;;;4.97;;
11711;SDS011;5912;51.034;6.984;2024-01-30T10:57:16;6.72;;;5.00;;
11711;SDS011;5912;51.034;6.984;2024-01-30T10:59:42;8.85;;;5.30;;
11711;SDS011;5912;51.034;6.984;2024-01-30T11:02:08;8.88;;;5.18;;
11711;SDS011;5912;51.034;6.984;2024-01-30T11:04:38;6.13;;;4.85;;
11711;SDS011;5912;51.034;6.984;2024-01-30T11:09:49;8.23;;;5.35;;
11711;SDS011;5912;51.034;6.984;2024-01-30T11:12:22;6.22;;;4.30;;
11711;SDS011;5912;51.034;6.984;2024-01-30T11:14:48;7.82;;;5.15;;
11711;SDS011;5912;51.034;6.984;2024-01-30T11:17:14;7.05;;;5.00;;
11711;SDS011;5912;51.034;6.984;2024-01-30T11:19:41;9.77;;;4.93;;
11711;SDS011;5912;51.034;6.984;2024-01-30T11:22:07;5.57;;;4.65;;
11711;SDS011;5912;51.034;6.984;2024-01-30T11:24:38;7.80;;;5.30;;
11711;SDS011;5912;51.034;6.984;2024-01-30T11:27:07;9.00;;;5.88;;
11711;SDS011;5912;51.034;6.984;2024-01-30T11:29:34;7.13;;;5.28;;
11711;SDS011;5912;51.034;6.984;2024-01-30T11:32:00;6.65;;;5.10;;
11711;SDS011;5912;51.034;6.984;2024-01-30T11:34:25;6.65;;;4.57;;
11711;SDS011;5912;51.034;6.984;2024-01-30T11:36:57;7.15;;;4.47;;
11711;SDS011;5912;51.034;6.984;2024-01-30T11:39:27;7.25;;;5.10;;
11711;SDS011;5912;51.034;6.984;2024-01-30T11:41:54;7.30;;;5.40;;
11711;SDS011;5912;51.034;6.984;2024-01-30T11:44:20;6.45;;;5.05;;
11711;SDS011;5912;51.034;6.984;2024-01-30T11:46:49;7.30;;;4.85;;
11711;SDS011;5912;51.034;6.984;2024-01-30T11:49:15;6.75;;;4.90;;
11711;SDS011;5912;51.034;6.984;2024-01-30T11:51:42;8.20;;;5.70;;
11711;SDS011;5912;51.034;6.984;2024-01-30T11:54:08;8.07;;;5.25;;
11711;SDS011;5912;51.034;6.984;2024-01-30T11:56:33;7.07;;;5.00;;
11711;SDS011;5912;51.034;6.984;2024-01-30T11:58:59;7.30;;;4.90;;
11711;SDS011;5912;51.034;6.984;2024-01-30T12:01:25;7.15;;;4.38;;
11711;SDS011;5912;51.034;6.984;2024-01-30T12:03:51;10.10;;;5.15;;
11711;SDS011;5912;51.034;6.984;2024-01-30T12:06:17;5.22;;;4.57;;
11711;SDS011;5912;51.034;6.984;2024-01-30T12:08:42;5.90;;;4.80;;
11711;SDS011;5912;51.034;6.984;2024-01-30T12:11:08;9.82;;;5.75;;
11711;SDS011;5912;51.034;6.984;2024-01-30T12:13:33;6.95;;;5.05;;
11711;SDS011;5912;51.034;6.984;2024-01-30T12:16:00;8.18;;;5.32;;
11711;SDS011;5912;51.034;6.984;2024-01-30T12:18:26;7.38;;;4.72;;
11711;SDS011;5912;51.034;6.984;2024-01-30T12:21:00;7.55;;;5.07;;
11711;SDS011;5912;51.034;6.984;2024-01-30T12:23:28;6.78;;;4.80;;
11711;SDS011;5912;51.034;6.984;2024-01-30T12:25:54;5.80;;;4.90;;
11711;SDS011;5912;51.034;6.984;2024-01-30T12:28:20;9.85;;;4.95;;
11711;SDS011;5912;51.034;6.984;2024-01-30T12:30:45;5.72;;;5.10;;
11711;SDS011;5912;51.034;6.984;2024-01-30T12:33:16;7.70;;;4.78;;
11711;SDS011;5912;51.034;6.984;2024-01-30T12:35:45;5.72;;;4.50;;
11711;SDS011;5912;51.034;6.984;2024-01-30T12:41:34;9.05;;;5.20;;
11711;SDS011;5912;51.034;6.984;2024-01-30T12:44:00;9.05;;;5.60;;
11711;SDS011;5912;51.034;6.984;2024-01-30T12:46:27;9.70;;;5.00;;
11711;SDS011;5912;51.034;6.984;2024-01-30T12:48:53;7.45;;;5.03;;
11711;SDS011;5912;51.034;6.984;2024-01-30T12:51:19;7.18;;;4.75;;
11711;SDS011;5912;51.034;6.984;2024-01-30T12:53:44;7.10;;;5.03;;
11711;SDS011;5912;51.034;6.984;2024-01-30T12:56:11;7.85;;;4.63;;
11711;SDS011;5912;51.034;6.984;2024-01-30T12:58:37;8.35;;;5.47;;
11711;SDS011;5912;51.034;6.984;2024-01-30T13:01:02;7.07;;;5.30;;
11711;SDS011;5912;51.034;6.984;2024-01-30T13:03:28;7.28;;;5.43;;
11711;SDS011;5912;51.034;6.984;2024-01-30T13:05:53;7.28;;;5.22;;
11711;SDS011;5912;51.034;6.984;2024-01-30T13:08:19;9.30;;;5.63;;
11711;SDS011;5912;51.034;6.984;2024-01-30T13:10:44;7.40;;;5.30;;
11711;SDS011;5912;51.034;6.984;2024-01-30T13:13:09;7.95;;;5.20;;
11711;SDS011;5912;51.034;6.984;2024-01-30T13:15:34;7.63;;;5.45;;
11711;SDS011;5912;51.034;6.984;2024-01-30T13:18:00;8.07;;;5.65;;
11711;SDS011;5912;51.034;6.984;2024-01-30T13:20:25;6.93;;;5.38;;
11711;SDS011;5912;51.034;6.984;2024-01-30T13:22:50;8.45;;;5.07;;
11711;SDS011;5912;51.034;6.984;2024-01-30T13:25:16;9.70;;;7.05;;
11711;SDS011;5912;51.034;6.984;2024-01-30T13:27:41;11.73;;;5.72;;
11711;SDS011;5912;51.034;6.984;2024-01-30T13:30:07;10.27;;;5.38;;
11711;SDS011;5912;51.034;6.984;2024-01-30T13:32:34;7.00;;;5.57;;
11711;SDS011;5912;51.034;6.984;2024-01-30T13:34:59;9.10;;;6.25;;
11711;SDS011;5912;51.034;6.984;2024-01-30T13:37:25;8.63;;;5.63;;
11711;SDS011;5912;51.034;6.984;2024-01-30T13:39:50;8.63;;;5.63;;
11711;SDS011;5912;51.034;6.984;2024-01-30T13:42:15;6.63;;;5.47;;
11711;SDS011;5912;51.034;6.984;2024-01-30T13:44:41;9.18;;;5.72;;
11711;SDS011;5912;51.034;6.984;2024-01-30T13:47:08;8.68;;;5.80;;
11711;SDS011;5912;51.034;6.984;2024-01-30T13:49:34;6.47;;;4.65;;
11711;SDS011;5912;51.034;6.984;2024-01-30T13:51:59;6.32;;;4.32;;
11711;SDS011;5912;51.034;6.984;2024-01-30T13:54:24;7.50;;;3.95;;
11711;SDS011;5912;51.034;6.984;2024-01-30T13:56:49;8.68;;;4.30;;
11711;SDS011;5912;51.034;6.984;2024-01-30T13:59:15;6.32;;;4.60;;
11711;SDS011;5912;51.034;6.984;2024-01-30T14:01:40;8.18;;;4.82;;
11711;SDS011;5912;51.034;6.984;2024-01-30T14:04:05;5.55;;;4.20;;
11711;SDS011;5912;51.034;6.984;2024-01-30T14:06:43;10.27;;;4.38;;
11711;SDS011;5912;51.034;6.984;2024-01-30T14:09:08;8.23;;;4.05;;
11711;SDS011;5912;51.034;6.984;2024-01-30T14:11:35;9.88;;;4.45;;
11711;SDS011;5912;51.034;6.984;2024-01-30T14:14:00;8.02;;;4.43;;
11711;SDS011;5912;51.034;6.984;2024-01-30T14:16:26;6.38;;;4.47;;
11711;SDS011;5912;51.034;6.984;2024-01-30T14:18:51;5.75;;;3.75;;
11711;SDS011;5912;51.034;6.984;2024-01-30T14:21:16;7.95;;;4.68;;
11711;SDS011;5912;51.034;6.984;2024-01-30T14:23:42;8.38;;;4.45;;
11711;SDS011;5912;51.034;6.984;2024-01-30T14:26:07;8.88;;;4.80;;
11711;SDS011;5912;51.034;6.984;2024-01-30T14:28:32;5.95;;;4.60;;
11711;SDS011;5912;51.034;6.984;2024-01-30T14:30:58;8.43;;;4.88;;
11711;SDS011;5912;51.034;6.984;2024-01-30T14:33:23;6.85;;;5.05;;
11711;SDS011;5912;51.034;6.984;2024-01-30T14:35:49;6.30;;;4.38;;
11711;SDS011;5912;51.034;6.984;2024-01-30T14:38:14;9.13;;;4.40;;
11711;SDS011;5912;51.034;6.984;2024-01-30T14:40:41;8.40;;;4.45;;
11711;SDS011;5912;51.034;6.984;2024-01-30T14:43:06;8.40;;;4.32;;
11711;SDS011;5912;51.034;6.984;2024-01-30T14:45:32;6.80;;;4.68;;
11711;SDS011;5912;51.034;6.984;2024-01-30T14:47:58;8.70;;;4.47;;
11711;SDS011;5912;51.034;6.984;2024-01-30T14:50:24;10.15;;;4.55;;
11711;SDS011;5912;51.034;6.984;2024-01-30T14:52:50;7.10;;;4.75;;
11711;SDS011;5912;51.034;6.984;2024-01-30T14:55:15;11.68;;;4.90;;
11711;SDS011;5912;51.034;6.984;2024-01-30T14:57:40;8.93;;;4.82;;